Time;durP1;ratioP1;P1;durP2;ratioP2;P2;SDS_P1;SDS_P2;PMS_P1;PMS_P2;Temp;Humidity;BMP_temperature;BMP_pressure;BME280_temperature;BME280_humidity;BME280_pressure;Samples;Min_cycle;Max_cycle;Signal;HPM_P1;HPM_P2
2020/12/01 00:00:54;;;;;;;52.00;26.77;;;0.80;95.30;;;;;;5035797;28;20259;-76
2020/12/01 00:03:21;;;;;;;49.67;26.83;;;0.90;95.30;;;;;;5032350;28;20706;-77
2020/12/01 00:05:47;;;;;;;46.67;25.63;;;1.00;95.40;;;;;;5022676;28;20715;-78
2020/12/01 00:08:14;;;;;;;51.42;27.35;;;1.00;95.40;;;;;;5024958;28;20228;-78
2020/12/01 00:10:41;;;;;;;52.40;28.88;;;1.00;95.40;;;;;;5038078;28;20234;-79
2020/12/01 00:13:07;;;;;;;51.55;27.50;;;1.00;95.40;;;;;;5038228;28;20199;-79
2020/12/01 00:15:34;;;;;;;55.10;27.98;;;1.00;95.40;;;;;;5038227;28;20277;-79
2020/12/01 00:18:01;;;;;;;43.88;26.65;;;1.00;95.80;;;;;;5037846;28;20203;-81
2020/12/01 00:20:27;;;;;;;55.83;28.10;;;1.00;95.80;;;;;;5038186;28;20223;-80
2020/12/01 00:22:55;;;;;;;47.30;25.20;;;1.00;95.90;;;;;;5038237;28;20203;-79
2020/12/01 00:25:23;;;;;;;45.47;24.55;;;1.00;96.00;;;;;;5037927;28;20220;-79
2020/12/01 00:27:50;;;;;;;53.30;28.63;;;1.00;96.10;;;;;;5037753;28;20192;-79
2020/12/01 00:30:21;;;;;;;48.42;25.90;;;1.10;96.30;;;;;;5038288;28;20218;-78
2020/12/01 00:32:47;;;;;;;46.30;25.40;;;1.10;96.30;;;;;;5038159;28;20207;-78
2020/12/01 00:35:16;;;;;;;51.28;25.70;;;1.10;96.40;;;;;;5035884;28;20184;-77
2020/12/01 00:37:42;;;;;;;53.13;26.33;;;1.10;96.50;;;;;;5019457;28;20278;-77
2020/12/01 00:40:10;;;;;;;47.00;24.92;;;1.10;96.70;;;;;;5019327;28;20223;-75
2020/12/01 00:42:37;;;;;;;50.13;25.48;;;1.10;96.90;;;;;;5016449;28;20668;-77
2020/12/01 00:45:06;;;;;;;46.10;24.90;;;1.20;97.30;;;;;;5017585;28;20296;-77
2020/12/01 00:47:33;;;;;;;48.58;25.00;;;1.20;97.30;;;;;;5015102;28;20243;-76
2020/12/01 00:49:59;;;;;;;47.88;24.48;;;1.20;97.50;;;;;;5015603;28;20295;-76
2020/12/01 00:52:26;;;;;;;45.67;23.80;;;1.30;97.50;;;;;;5019866;28;20254;-77
2020/12/01 00:54:52;;;;;;;46.10;24.02;;;1.30;97.60;;;;;;5016962;28;20679;-77
2020/12/01 00:57:19;;;;;;;49.70;24.85;;;1.30;97.40;;;;;;5016323;28;20231;-77
2020/12/01 00:59:45;;;;;;;51.25;24.38;;;1.30;97.40;;;;;;5016897;28;20243;-77
2020/12/01 01:02:12;;;;;;;42.30;22.80;;;1.40;97.30;;;;;;5017005;28;20294;-76
2020/12/01 01:04:39;;;;;;;44.83;22.40;;;1.40;97.30;;;;;;5013973;28;20276;-77
2020/12/01 01:07:05;;;;;;;43.00;24.20;;;1.40;97.10;;;;;;5019150;28;20318;-77
2020/12/01 01:09:32;;;;;;;51.75;24.20;;;1.40;97.30;;;;;;5017218;28;20660;-78
2020/12/01 01:11:58;;;;;;;44.22;23.40;;;1.40;97.10;;;;;;5016426;28;20468;-76
2020/12/01 01:14:24;;;;;;;42.80;22.83;;;1.40;97.20;;;;;;5015311;28;20203;-78
2020/12/01 01:16:51;;;;;;;41.72;22.65;;;1.40;97.20;;;;;;5014289;28;20269;-78
2020/12/01 01:19:18;;;;;;;48.00;24.13;;;1.40;97.10;;;;;;5016953;28;20670;-77
2020/12/01 01:21:47;;;;;;;41.15;22.90;;;1.50;97.20;;;;;;5020774;28;20208;-76
2020/12/01 01:24:16;;;;;;;40.80;22.83;;;1.40;97.00;;;;;;5020726;28;20679;-78
2020/12/01 01:26:48;;;;;;;48.97;23.02;;;1.30;96.90;;;;;;5017613;28;20318;-76
2020/12/01 01:29:15;;;;;;;41.83;22.67;;;1.30;97.10;;;;;;5020663;28;20242;-76
2020/12/01 01:31:41;;;;;;;41.63;23.73;;;1.30;97.20;;;;;;5021276;28;20208;-76
2020/12/01 01:34:08;;;;;;;42.47;23.23;;;1.30;97.40;;;;;;5017793;28;20212;-76
2020/12/01 01:36:36;;;;;;;44.33;24.10;;;1.30;97.40;;;;;;5017507;28;20247;-77
2020/12/01 01:39:04;;;;;;;43.50;23.42;;;1.30;97.70;;;;;;5020307;28;20208;-75
2020/12/01 01:41:32;;;;;;;40.92;23.35;;;1.40;97.90;;;;;;5023212;28;20679;-77
2020/12/01 01:43:59;;;;;;;43.97;24.40;;;1.30;98.00;;;;;;5022682;28;20208;-77
2020/12/01 01:46:38;;;;;;;44.22;23.58;;;1.30;98.20;;;;;;5026472;28;20271;-76
2020/12/01 01:49:10;;;;;;;49.83;26.42;;;1.40;98.70;;;;;;5031807;28;20212;-77
2020/12/01 01:51:39;;;;;;;46.60;23.33;;;1.40;98.90;;;;;;5017257;28;20260;-78
2020/12/01 01:54:06;;;;;;;45.30;23.45;;;1.40;99.00;;;;;;5016255;28;20204;-77
2020/12/01 01:56:38;;;;;;;43.35;22.50;;;1.40;99.00;;;;;;5016229;28;20778;-77
2020/12/01 01:59:05;;;;;;;41.45;22.58;;;1.40;99.00;;;;;;5016120;28;20215;-76
2020/12/01 02:01:32;;;;;;;49.92;24.83;;;1.50;99.00;;;;;;5018566;28;20231;-78
2020/12/01 02:04:01;;;;;;;42.50;23.75;;;1.40;99.00;;;;;;5017184;28;20212;-77
2020/12/01 02:06:30;;;;;;;43.38;22.63;;;1.40;99.00;;;;;;5016051;28;20227;-77
2020/12/01 02:09:00;;;;;;;46.40;23.33;;;1.40;99.00;;;;;;5015027;28;20212;-77
2020/12/01 02:11:29;;;;;;;44.15;23.88;;;1.40;99.20;;;;;;5014289;28;20208;-77
2020/12/01 02:14:04;;;;;;;47.45;24.50;;;1.40;99.40;;;;;;5012614;28;20288;-77
2020/12/01 02:16:31;;;;;;;45.00;23.50;;;1.50;99.30;;;;;;5021599;28;20295;-77
2020/12/01 02:18:58;;;;;;;49.80;22.67;;;1.40;99.30;;;;;;5035606;28;20242;-77
2020/12/01 02:21:32;;;;;;;42.63;23.48;;;1.50;99.40;;;;;;5035629;28;20247;-77
2020/12/01 02:24:04;;;;;;;49.50;24.88;;;1.40;99.10;;;;;;5029188;28;20587;-77
2020/12/01 02:26:32;;;;;;;48.80;24.23;;;1.50;99.30;;;;;;5018759;28;20704;-77
2020/12/01 02:29:02;;;;;;;55.40;26.90;;;1.50;99.30;;;;;;5018291;28;20211;-76
2020/12/01 02:31:29;;;;;;;46.00;23.83;;;1.50;99.50;;;;;;5015906;28;20239;-77
2020/12/01 02:33:55;;;;;;;54.83;25.35;;;1.50;99.50;;;;;;5012783;28;20311;-75
2020/12/01 02:36:21;;;;;;;43.00;22.25;;;1.50;99.50;;;;;;5011996;28;20250;-78
2020/12/01 02:38:48;;;;;;;40.40;23.20;;;1.50;99.50;;;;;;5018058;28;20299;-78
2020/12/01 02:41:14;;;;;;;48.30;24.20;;;1.50;99.60;;;;;;5016698;28;20250;-76
2020/12/01 02:43:41;;;;;;;43.05;23.13;;;1.50;99.70;;;;;;5014486;28;20262;-77
2020/12/01 02:46:08;;;;;;;55.15;24.30;;;1.50;99.80;;;;;;5024963;28;20240;-76
2020/12/01 02:48:34;;;;;;;42.53;22.65;;;1.50;99.70;;;;;;5031613;28;20212;-77
2020/12/01 02:51:01;;;;;;;47.47;23.48;;;1.60;99.80;;;;;;5030820;28;20246;-77
2020/12/01 02:53:27;;;;;;;42.40;22.25;;;1.60;99.80;;;;;;5029987;28;20215;-76
2020/12/01 02:55:53;;;;;;;41.67;21.90;;;1.60;99.80;;;;;;5031389;28;20258;-76
2020/12/01 02:58:20;;;;;;;42.35;21.55;;;1.60;99.80;;;;;;5030650;28;20212;-77
2020/12/01 03:00:47;;;;;;;44.20;21.50;;;1.60;99.90;;;;;;5026791;28;20260;-77
2020/12/01 03:03:14;;;;;;;39.83;21.65;;;1.70;99.90;;;;;;5022101;28;20303;-77
2020/12/01 03:05:40;;;;;;;43.75;21.38;;;1.80;99.90;;;;;;5013543;28;20232;-77
2020/12/01 03:08:06;;;;;;;38.13;21.38;;;1.80;99.90;;;;;;5012427;28;20212;-77
2020/12/01 03:10:33;;;;;;;41.53;21.25;;;1.80;99.80;;;;;;5014140;28;20287;-77
2020/12/01 03:12:59;;;;;;;43.25;21.65;;;1.80;99.60;;;;;;5014641;28;20207;-77
2020/12/01 03:15:26;;;;;;;37.85;19.15;;;1.80;99.20;;;;;;5014108;28;20236;-77
2020/12/01 03:17:53;;;;;;;38.25;20.85;;;1.80;99.10;;;;;;5013496;28;20298;-76
2020/12/01 03:20:19;;;;;;;40.10;21.00;;;1.70;99.10;;;;;;5013161;28;20317;-76
2020/12/01 03:22:46;;;;;;;36.80;20.90;;;1.70;99.40;;;;;;5016338;28;20287;-77
2020/12/01 03:25:12;;;;;;;40.55;20.80;;;1.70;99.10;;;;;;5016835;28;20298;-76
2020/12/01 03:27:38;;;;;;;38.63;21.20;;;1.70;99.10;;;;;;5016431;28;20306;-76
2020/12/01 03:30:07;;;;;;;42.65;21.50;;;1.70;99.10;;;;;;5016556;28;20214;-76
2020/12/01 03:32:33;;;;;;;39.92;20.52;;;1.70;99.10;;;;;;5016629;28;20303;-78
2020/12/01 03:35:00;;;;;;;41.15;21.90;;;1.70;99.50;;;;;;5017911;28;20231;-77
2020/12/01 03:37:27;;;;;;;41.85;19.63;;;1.70;99.60;;;;;;5024588;28;20251;-76
2020/12/01 03:39:53;;;;;;;39.70;21.90;;;1.80;99.80;;;;;;5036694;28;20222;-76
2020/12/01 03:42:20;;;;;;;33.53;18.60;;;1.80;99.80;;;;;;5030855;28;20476;-78
2020/12/01 03:44:46;;;;;;;43.55;21.60;;;1.80;99.80;;;;;;5026386;28;20207;-77
2020/12/01 03:47:13;;;;;;;42.80;21.52;;;1.80;99.80;;;;;;5023294;28;20318;-76
2020/12/01 03:49:39;;;;;;;44.15;21.60;;;1.80;99.80;;;;;;5018089;28;20242;-77
2020/12/01 03:52:06;;;;;;;40.28;21.40;;;1.80;99.90;;;;;;5017725;28;20738;-77
2020/12/01 03:54:33;;;;;;;39.33;21.55;;;1.80;99.90;;;;;;5015782;28;20207;-77
2020/12/01 03:56:59;;;;;;;38.30;20.00;;;1.80;99.90;;;;;;5013980;28;20235;-77
2020/12/01 03:59:26;;;;;;;41.83;22.40;;;1.70;99.90;;;;;;5015136;28;20297;-77
2020/12/01 04:05:15;;;;;;;45.85;19.77;;;1.80;99.90;;;;;;5015216;28;20221;-76
2020/12/01 04:07:43;;;;;;;45.38;20.70;;;1.70;99.90;;;;;;5016626;28;20262;-77
2020/12/01 04:10:11;;;;;;;40.83;20.23;;;1.70;99.90;;;;;;5016966;28;20218;-77
2020/12/01 04:12:38;;;;;;;39.42;20.05;;;1.70;99.90;;;;;;5016971;28;20258;-77
2020/12/01 04:15:04;;;;;;;39.75;20.55;;;1.70;99.90;;;;;;5016902;28;20199;-76
2020/12/01 04:17:31;;;;;;;43.03;21.70;;;1.70;99.90;;;;;;5016101;28;20948;-77
2020/12/01 04:19:58;;;;;;;42.35;20.38;;;1.70;99.90;;;;;;5018306;28;20373;-77
2020/12/01 04:22:24;;;;;;;33.15;17.65;;;1.70;99.90;;;;;;5021254;28;20227;-76
2020/12/01 04:24:52;;;;;;;44.97;20.85;;;1.60;99.90;;;;;;5022543;28;20234;-76
2020/12/01 04:27:18;;;;;;;47.78;21.88;;;1.60;99.90;;;;;;5020781;28;20233;-76
2020/12/01 04:29:44;;;;;;;40.25;22.25;;;1.50;99.90;;;;;;5015950;28;20702;-76
2020/12/01 04:32:11;;;;;;;41.00;19.45;;;1.50;99.90;;;;;;5015658;28;20398;-79
2020/12/01 04:34:38;;;;;;;43.47;22.23;;;1.50;99.90;;;;;;5016839;28;20236;-78
2020/12/01 04:37:06;;;;;;;35.63;18.73;;;1.50;99.90;;;;;;5014431;28;20238;-76
2020/12/01 04:39:33;;;;;;;41.40;18.10;;;1.50;99.90;;;;;;5014438;28;20300;-77
2020/12/01 04:42:01;;;;;;;38.92;21.20;;;1.60;99.90;;;;;;5017452;28;20295;-77
2020/12/01 04:44:31;;;;;;;45.13;20.35;;;1.60;99.90;;;;;;5018287;28;20215;-77
2020/12/01 04:47:01;;;;;;;43.38;21.52;;;1.60;99.90;;;;;;5018208;28;20322;-77
2020/12/01 04:49:31;;;;;;;42.17;19.92;;;1.60;99.90;;;;;;5019393;28;20196;-77
2020/12/01 04:52:23;;;;;;;42.15;19.95;;;1.70;99.90;;;;;;5017953;28;20235;-77
2020/12/01 04:55:16;;;;;;;32.95;19.00;;;1.70;99.90;;;;;;5018852;28;20246;-77
2020/12/01 04:58:07;;;;;;;44.75;20.67;;;1.70;99.90;;;;;;5012286;28;20211;-76
2020/12/01 05:00:41;;;;;;;40.03;19.63;;;1.70;99.90;;;;;;5014112;28;20227;-77
2020/12/01 05:03:21;;;;;;;44.65;19.48;;;1.70;99.90;;;;;;5013690;28;20364;-76
2020/12/01 05:06:07;;;;;;;44.20;20.95;;;1.70;99.90;;;;;;5015224;28;20236;-76
2020/12/01 05:08:50;;;;;;;42.72;20.02;;;1.70;99.90;;;;;;5020645;28;20865;-77
2020/12/01 05:11:40;;;;;;;37.85;18.23;;;1.70;99.90;;;;;;5019768;28;20192;-78
2020/12/01 05:14:15;;;;;;;43.20;19.90;;;1.70;99.90;;;;;;5023390;28;20632;-76
2020/12/01 05:16:55;;;;;;;44.33;20.67;;;1.70;99.90;;;;;;5001468;28;20231;-77
2020/12/01 05:19:43;;;;;;;35.08;18.80;;;1.80;99.90;;;;;;4995780;28;20212;-77
2020/12/01 05:22:11;;;;;;;40.05;20.45;;;1.70;99.90;;;;;;4994994;28;20243;-75
2020/12/01 05:24:42;;;;;;;39.78;21.20;;;1.70;99.90;;;;;;4992400;28;20208;-76
2020/12/01 05:27:24;;;;;;;38.15;20.42;;;1.70;99.90;;;;;;4993373;28;20364;-76
2020/12/01 05:30:00;;;;;;;38.20;19.25;;;1.70;99.90;;;;;;4992252;28;20205;-77
2020/12/01 05:32:33;;;;;;;41.75;20.77;;;1.70;99.90;;;;;;4993891;28;20226;-76
2020/12/01 05:35:09;;;;;;;40.92;19.05;;;1.70;99.90;;;;;;4993441;28;20276;-76
2020/12/01 05:37:36;;;;;;;31.77;16.60;;;1.70;99.90;;;;;;4993061;28;20204;-77
2020/12/01 05:40:05;;;;;;;36.10;20.35;;;1.70;99.90;;;;;;4993827;28;20226;-77
2020/12/01 05:42:35;;;;;;;37.08;19.45;;;1.70;99.90;;;;;;4992931;28;20312;-77
2020/12/01 05:45:03;;;;;;;41.42;21.30;;;1.70;99.90;;;;;;4992822;28;20493;-77
2020/12/01 05:47:40;;;;;;;39.45;19.85;;;1.70;99.90;;;;;;5051354;23;20314;-75
2020/12/01 05:50:09;;;;;;;39.63;19.33;;;1.70;99.90;;;;;;5054239;28;20274;-76
2020/12/01 05:52:47;;;;;;;41.75;21.27;;;1.80;99.90;;;;;;5053433;28;20214;-76
2020/12/01 05:55:16;;;;;;;40.33;19.83;;;1.70;99.90;;;;;;5053248;28;20244;-76
2020/12/01 05:57:43;;;;;;;40.03;18.95;;;1.70;99.90;;;;;;5052669;28;20283;-76
2020/12/01 06:00:16;;;;;;;40.92;20.15;;;1.70;99.90;;;;;;5052455;28;20230;-76
2020/12/01 06:02:55;;;;;;;40.03;18.80;;;1.60;99.90;;;;;;5055086;28;20289;-77
2020/12/01 06:05:24;;;;;;;41.63;19.25;;;1.60;99.90;;;;;;5055871;28;20245;-75
2020/12/01 06:07:54;;;;;;;31.90;17.38;;;1.50;99.90;;;;;;5053321;28;20250;-76
2020/12/01 06:10:33;;;;;;;34.38;18.10;;;1.50;99.90;;;;;;5054780;28;20271;-75
2020/12/01 06:13:16;;;;;;;36.30;18.30;;;1.50;99.90;;;;;;5055629;28;20213;-75
2020/12/01 06:16:01;;;;;;;37.92;19.02;;;1.50;99.90;;;;;;5060251;28;20206;-76
2020/12/01 06:18:37;;;;;;;37.45;19.52;;;1.50;99.90;;;;;;5054805;28;20614;-77
2020/12/01 06:21:07;;;;;;;33.15;17.95;;;1.60;99.90;;;;;;5060374;28;20218;-76
2020/12/01 06:24:10;;;;;;;34.47;17.20;;;1.60;99.90;;;;;;5061089;28;20241;-77
2020/12/01 06:27:02;;;;;;;35.22;17.98;;;1.60;99.90;;;;;;5052674;28;20234;-76
2020/12/01 06:30:00;;;;;;;36.97;19.27;;;1.60;99.90;;;;;;5053633;28;20558;-74
2020/12/01 06:33:01;;;;;;;33.75;16.95;;;1.60;99.90;;;;;;5055144;28;20257;-74
2020/12/01 06:35:50;;;;;;;41.63;17.98;;;1.70;99.90;;;;;;5055265;28;20195;-77
2020/12/01 06:38:28;;;;;;;37.53;17.17;;;1.70;99.90;;;;;;5053385;28;20213;-76
2020/12/01 06:41:01;;;;;;;44.03;19.90;;;1.70;99.90;;;;;;5054700;28;20272;-76
2020/12/01 06:43:34;;;;;;;35.85;19.58;;;1.70;99.90;;;;;;5054707;28;20202;-76
2020/12/01 06:46:01;;;;;;;36.50;19.10;;;1.70;99.90;;;;;;5051994;28;20345;-76
2020/12/01 06:48:38;;;;;;;31.85;17.50;;;1.80;99.90;;;;;;5055499;28;20297;-75
2020/12/01 06:51:10;;;;;;;38.85;18.45;;;1.80;99.90;;;;;;5055496;28;20187;-75
2020/12/01 06:53:40;;;;;;;31.75;17.13;;;1.90;99.90;;;;;;5056220;28;20273;-75
2020/12/01 06:56:17;;;;;;;29.58;16.27;;;1.80;99.90;;;;;;5059457;28;20325;-75
2020/12/01 06:58:45;;;;;;;29.13;15.90;;;1.90;99.90;;;;;;5060159;28;20213;-76
2020/12/01 07:01:31;;;;;;;32.85;17.13;;;1.90;99.90;;;;;;5061556;28;20264;-74
2020/12/01 07:04:21;;;;;;;30.55;17.73;;;1.80;99.90;;;;;;5060883;28;20245;-76
2020/12/01 07:06:50;;;;;;;31.35;15.48;;;1.80;99.90;;;;;;5063896;28;20230;-76
2020/12/01 07:09:19;;;;;;;35.83;16.90;;;1.90;99.90;;;;;;5065251;28;20241;-75
2020/12/01 07:11:57;;;;;;;35.40;16.88;;;1.90;99.90;;;;;;5064774;28;20256;-76
2020/12/01 07:14:32;;;;;;;30.67;14.90;;;1.90;99.90;;;;;;5065803;28;20206;-76
2020/12/01 07:16:58;;;;;;;23.63;11.93;;;1.90;99.90;;;;;;5066840;28;20221;-76
2020/12/01 07:19:38;;;;;;;28.65;15.02;;;1.90;99.90;;;;;;5066356;28;20203;-76
2020/12/01 07:22:09;;;;;;;33.78;16.85;;;1.90;99.90;;;;;;5061733;28;20215;-76
2020/12/01 07:24:41;;;;;;;29.55;17.02;;;1.90;99.90;;;;;;5059159;28;20207;-76
2020/12/01 07:27:15;;;;;;;36.25;17.58;;;2.00;99.90;;;;;;5058260;28;20313;-75
2020/12/01 07:30:04;;;;;;;27.65;14.52;;;2.00;99.90;;;;;;5057853;28;20210;-77
2020/12/01 07:32:43;;;;;;;32.25;16.98;;;2.00;99.90;;;;;;5058989;28;20245;-76
2020/12/01 07:35:13;;;;;;;31.17;15.13;;;2.00;99.90;;;;;;5059787;28;20324;-79
2020/12/01 07:37:55;;;;;;;39.60;17.83;;;2.00;99.90;;;;;;5060670;28;20253;-75
2020/12/01 07:40:27;;;;;;;28.13;15.25;;;2.00;99.90;;;;;;5061112;28;20252;-76
2020/12/01 07:43:00;;;;;;;32.47;15.82;;;2.00;99.90;;;;;;5061716;28;20206;-77
2020/12/01 07:45:29;;;;;;;32.65;17.30;;;2.10;99.90;;;;;;5068027;28;20243;-75
2020/12/01 07:47:57;;;;;;;26.95;16.30;;;2.10;99.90;;;;;;5068335;28;20261;-76
2020/12/01 07:50:24;;;;;;;33.75;16.33;;;2.20;99.90;;;;;;5068682;28;20219;-75
2020/12/01 07:52:58;;;;;;;30.60;17.52;;;2.20;99.90;;;;;;5070171;28;20207;-77
2020/12/01 07:55:29;;;;;;;27.27;14.82;;;2.20;99.90;;;;;;5068310;28;20206;-76
2020/12/01 07:57:58;;;;;;;26.73;15.07;;;2.20;99.90;;;;;;5069609;28;20234;-76
2020/12/01 08:00:25;;;;;;;30.17;14.13;;;2.20;99.90;;;;;;5064336;28;20288;-76
2020/12/01 08:03:00;;;;;;;29.00;15.27;;;2.20;99.90;;;;;;5065262;28;20266;-77
2020/12/01 08:05:27;;;;;;;32.58;14.15;;;2.30;99.90;;;;;;5061067;28;20244;-75
2020/12/01 08:07:55;;;;;;;26.05;14.85;;;2.30;99.90;;;;;;5056371;28;20259;-77
2020/12/01 08:10:23;;;;;;;25.83;13.30;;;2.30;99.90;;;;;;5058916;28;20211;-75
2020/12/01 08:12:52;;;;;;;26.58;14.13;;;2.30;99.90;;;;;;5057969;28;20224;-75
2020/12/01 08:15:21;;;;;;;32.67;16.35;;;2.30;99.90;;;;;;5058018;28;20294;-77
2020/12/01 08:17:49;;;;;;;28.92;13.88;;;2.40;99.90;;;;;;5057577;28;20237;-75
2020/12/01 08:20:19;;;;;;;30.05;14.13;;;2.40;99.90;;;;;;5057324;28;20286;-75
2020/12/01 08:22:54;;;;;;;21.80;12.88;;;2.40;99.90;;;;;;5058796;28;20297;-75
2020/12/01 08:25:24;;;;;;;24.30;14.15;;;2.40;99.90;;;;;;5066832;28;20212;-74
2020/12/01 08:28:03;;;;;;;24.92;13.20;;;2.40;99.90;;;;;;5063879;28;20254;-79
2020/12/01 08:30:37;;;;;;;23.58;14.23;;;2.40;99.90;;;;;;5067404;28;20662;-75
2020/12/01 08:33:37;;;;;;;23.55;13.73;;;2.50;99.90;;;;;;5067224;28;20260;-74
2020/12/01 08:36:13;;;;;;;20.27;12.20;;;2.50;99.90;;;;;;5073240;28;20298;-76
2020/12/01 08:39:15;;;;;;;21.13;13.80;;;2.40;99.90;;;;;;5064679;28;20232;-76
2020/12/01 08:41:49;;;;;;;24.40;13.93;;;2.50;99.90;;;;;;5024319;28;20599;-75
2020/12/01 08:44:28;;;;;;;22.48;14.98;;;2.50;99.90;;;;;;5056641;28;20218;-76
2020/12/01 08:46:55;;;;;;;26.45;13.38;;;2.50;99.90;;;;;;5056494;28;20237;-76
2020/12/01 08:49:41;;;;;;;18.70;12.05;;;2.50;99.90;;;;;;5056108;28;20683;-77
2020/12/01 08:52:28;;;;;;;23.67;12.98;;;2.50;99.90;;;;;;5066913;28;20194;-75
2020/12/01 08:54:59;;;;;;;26.50;14.25;;;2.50;99.90;;;;;;5058641;28;20210;-75
2020/12/01 08:57:33;;;;;;;21.25;13.82;;;2.50;99.90;;;;;;5057719;28;20638;-75
2020/12/01 09:00:08;;;;;;;25.00;14.30;;;2.60;99.90;;;;;;5058217;28;20210;-76
2020/12/01 09:02:38;;;;;;;24.20;13.93;;;2.50;99.90;;;;;;5066367;28;20286;-77
2020/12/01 09:05:07;;;;;;;25.92;13.27;;;2.60;99.90;;;;;;5068591;28;20194;-74
2020/12/01 09:07:37;;;;;;;25.23;13.73;;;2.60;99.90;;;;;;5069708;28;20233;-75
2020/12/01 09:10:12;;;;;;;23.60;13.48;;;2.60;99.90;;;;;;5071806;28;20198;-76
2020/12/01 09:12:42;;;;;;;20.00;13.00;;;2.70;99.90;;;;;;5070118;28;20566;-76
2020/12/01 09:15:26;;;;;;;20.63;12.93;;;2.70;99.90;;;;;;5070698;28;20202;-75
2020/12/01 09:18:03;;;;;;;21.55;13.95;;;2.70;99.90;;;;;;5071965;28;20251;-77
2020/12/01 09:23:18;;;;;;;24.65;12.45;;;2.70;99.90;;;;;;5068075;28;20209;-74
2020/12/01 09:25:47;;;;;;;22.67;13.18;;;2.80;99.90;;;;;;5071486;28;20210;-75
2020/12/01 09:28:16;;;;;;;21.67;13.80;;;2.80;99.90;;;;;;5070844;28;20246;-75
2020/12/01 09:30:44;;;;;;;21.70;12.10;;;2.80;99.90;;;;;;5069956;28;20238;-75
2020/12/01 09:33:13;;;;;;;21.50;12.63;;;2.80;99.90;;;;;;5068938;28;20243;-75
2020/12/01 09:35:41;;;;;;;19.73;12.13;;;2.90;99.90;;;;;;5069043;28;20210;-77
2020/12/01 09:38:07;;;;;;;18.13;11.00;;;2.90;99.90;;;;;;5069885;28;20403;-75
2020/12/01 09:40:35;;;;;;;17.67;11.65;;;2.90;99.90;;;;;;5068029;28;20297;-75
2020/12/01 09:43:09;;;;;;;20.63;10.45;;;2.90;99.90;;;;;;5068717;28;20220;-77
2020/12/01 09:45:37;;;;;;;24.25;12.25;;;3.00;99.90;;;;;;5070148;28;20202;-75
2020/12/01 09:48:08;;;;;;;20.02;12.18;;;3.00;99.90;;;;;;5072256;28;20226;-75
2020/12/01 09:50:36;;;;;;;21.13;11.85;;;3.00;99.90;;;;;;5067935;28;20690;-75
2020/12/01 09:53:19;;;;;;;18.90;12.07;;;3.10;99.90;;;;;;5065980;28;20606;-76
2020/12/01 09:56:03;;;;;;;18.30;11.18;;;3.10;99.90;;;;;;5067972;28;20213;-76
2020/12/01 10:09:43;;;;;;;16.75;10.93;;;3.20;99.90;;;;;;5072240;28;20209;-76
2020/12/01 10:12:29;;;;;;;21.98;10.43;;;3.20;99.90;;;;;;5071219;28;20197;-75
2020/12/01 10:34:41;;;;;;;20.63;12.27;;;3.30;99.90;;;;;;5066304;28;20208;-75
2020/12/01 10:37:07;;;;;;;19.15;11.85;;;3.30;99.70;;;;;;5064960;28;20265;-75
2020/12/01 10:39:34;;;;;;;20.77;12.52;;;3.30;99.70;;;;;;5067142;28;20238;-75
2020/12/01 10:42:06;;;;;;;20.48;11.57;;;3.30;99.70;;;;;;5069309;28;20230;-75
2020/12/01 10:44:33;;;;;;;18.60;12.82;;;3.30;99.70;;;;;;5070659;28;20206;-76
2020/12/01 10:46:59;;;;;;;18.42;11.73;;;3.40;99.70;;;;;;5070134;28;20239;-77
2020/12/01 10:49:26;;;;;;;17.58;11.80;;;3.40;99.70;;;;;;5069161;28;20209;-76
2020/12/01 10:51:52;;;;;;;21.35;12.30;;;3.50;99.80;;;;;;5067435;28;20211;-76
2020/12/01 10:54:19;;;;;;;25.95;12.30;;;3.40;99.60;;;;;;5069084;28;20206;-76
2020/12/01 10:56:47;;;;;;;26.15;12.60;;;3.40;99.40;;;;;;5063852;28;20299;-75
2020/12/01 10:59:14;;;;;;;17.77;11.65;;;3.40;99.30;;;;;;5062242;28;20297;-75
2020/12/01 11:01:41;;;;;;;24.20;13.20;;;3.50;99.10;;;;;;5057420;28;20230;-74
2020/12/01 11:04:08;;;;;;;18.83;11.70;;;3.50;98.80;;;;;;5056145;28;20567;-75
2020/12/01 11:06:36;;;;;;;19.42;12.05;;;3.60;98.60;;;;;;5062733;28;20245;-76
2020/12/01 11:09:03;;;;;;;16.45;10.40;;;3.60;98.40;;;;;;5068981;28;20210;-78
2020/12/01 11:11:29;;;;;;;20.05;11.07;;;3.60;97.90;;;;;;5063513;28;20281;-74
2020/12/01 11:13:56;;;;;;;20.92;12.15;;;3.60;97.70;;;;;;5061424;28;20234;-75
2020/12/01 11:16:23;;;;;;;14.63;10.63;;;3.50;97.40;;;;;;5057786;28;20241;-76
2020/12/01 11:18:49;;;;;;;15.77;10.32;;;3.50;97.20;;;;;;5057258;28;20221;-76
2020/12/01 11:21:16;;;;;;;16.92;10.45;;;3.50;97.50;;;;;;5065504;28;20222;-77
2020/12/01 11:23:42;;;;;;;16.08;10.82;;;3.50;97.30;;;;;;5074390;28;20215;-78
2020/12/01 11:26:12;;;;;;;16.35;10.10;;;3.50;97.10;;;;;;5070060;28;20258;-76
2020/12/01 11:28:38;;;;;;;17.77;10.82;;;3.50;97.30;;;;;;5064258;28;20227;-76
2020/12/01 11:31:06;;;;;;;16.67;11.95;;;3.50;97.00;;;;;;5059584;28;20221;-76
2020/12/01 11:33:35;;;;;;;15.57;10.02;;;3.60;97.20;;;;;;5055341;28;20207;-76
2020/12/01 11:36:02;;;;;;;18.15;10.98;;;3.60;97.10;;;;;;5054058;28;20215;-77
2020/12/01 11:38:28;;;;;;;17.17;11.02;;;3.60;97.10;;;;;;5054918;28;20207;-76
2020/12/01 11:40:54;;;;;;;18.13;11.23;;;3.60;97.20;;;;;;5062791;28;20252;-79
2020/12/01 11:43:21;;;;;;;13.52;10.20;;;3.60;97.50;;;;;;5064192;28;20218;-76
2020/12/01 11:45:47;;;;;;;16.30;11.75;;;3.60;97.60;;;;;;5059932;28;20264;-77
2020/12/01 11:48:14;;;;;;;15.63;11.10;;;3.60;97.90;;;;;;5058042;28;20252;-76
2020/12/01 11:50:41;;;;;;;17.40;11.50;;;3.60;98.10;;;;;;5057532;28;20638;-78
2020/12/01 11:53:07;;;;;;;18.85;12.75;;;3.60;98.10;;;;;;5059224;28;20610;-79
2020/12/01 11:55:34;;;;;;;15.68;11.05;;;3.60;98.50;;;;;;5060556;28;20210;-79
2020/12/01 11:58:00;;;;;;;23.02;12.55;;;3.50;98.60;;;;;;5066666;28;20211;-78
2020/12/01 12:00:28;;;;;;;19.10;12.23;;;3.50;98.90;;;;;;5087763;22;20234;-78
2020/12/01 12:02:54;;;;;;;29.80;12.98;;;3.50;99.20;;;;;;5078915;28;20236;-77
2020/12/01 12:05:20;;;;;;;27.58;12.55;;;3.50;99.50;;;;;;5079225;28;20234;-76
2020/12/01 12:07:48;;;;;;;23.35;11.02;;;3.60;99.80;;;;;;5078758;28;20201;-77
2020/12/01 12:10:14;;;;;;;17.70;11.98;;;3.50;99.80;;;;;;5080626;28;20225;-76
2020/12/01 12:12:40;;;;;;;18.90;11.32;;;3.40;99.70;;;;;;5078172;28;20284;-77
2020/12/01 12:15:07;;;;;;;21.20;12.57;;;3.40;99.70;;;;;;5079187;28;20273;-76
2020/12/01 12:17:34;;;;;;;16.30;11.30;;;3.50;99.90;;;;;;5080996;28;20278;-77
2020/12/01 12:20:00;;;;;;;18.23;11.52;;;3.50;99.90;;;;;;5083183;28;20230;-76
2020/12/01 12:22:27;;;;;;;22.52;12.02;;;3.50;99.90;;;;;;5085962;28;20245;-77
2020/12/01 12:24:54;;;;;;;20.70;11.45;;;3.50;99.90;;;;;;5085351;28;20209;-77
2020/12/01 12:27:20;;;;;;;17.40;10.82;;;3.50;99.90;;;;;;5079631;28;20237;-76
2020/12/01 12:29:46;;;;;;;15.85;10.82;;;3.50;99.90;;;;;;5078103;28;20234;-77
2020/12/01 12:32:13;;;;;;;16.48;11.30;;;3.60;99.90;;;;;;5078342;28;20681;-77
2020/12/01 12:34:39;;;;;;;18.35;10.48;;;3.50;99.90;;;;;;5077682;28;20206;-77
2020/12/01 12:37:06;;;;;;;20.00;10.40;;;3.50;99.90;;;;;;5074232;28;20293;-76
2020/12/01 12:39:32;;;;;;;14.68;9.82;;;3.50;99.90;;;;;;5078128;28;20227;-77
2020/12/01 12:42:00;;;;;;;16.48;9.55;;;3.50;99.90;;;;;;5079226;28;20233;-77
2020/12/01 12:44:26;;;;;;;15.00;9.85;;;3.50;99.90;;;;;;5081125;28;20210;-78
2020/12/01 12:46:52;;;;;;;16.33;9.98;;;3.50;99.90;;;;;;5080246;28;20238;-76
2020/12/01 12:49:18;;;;;;;17.33;10.27;;;3.60;99.90;;;;;;5080037;28;20308;-76
2020/12/01 12:51:45;;;;;;;16.73;10.40;;;3.70;99.90;;;;;;5079999;28;20278;-78
2020/12/01 12:54:11;;;;;;;15.00;9.68;;;3.70;99.90;;;;;;5079446;28;20342;-77
2020/12/01 12:56:37;;;;;;;16.63;10.35;;;3.70;99.90;;;;;;5075371;28;20300;-77
2020/12/01 12:59:05;;;;;;;14.40;9.50;;;3.60;99.80;;;;;;5075442;28;20230;-76
2020/12/01 13:01:31;;;;;;;14.93;10.00;;;3.60;99.50;;;;;;5073953;28;20250;-78
2020/12/01 13:03:57;;;;;;;16.67;9.93;;;3.50;99.80;;;;;;5074190;28;20661;-77
2020/12/01 13:06:24;;;;;;;13.15;9.43;;;3.60;99.80;;;;;;5074857;28;20216;-77
2020/12/01 13:08:50;;;;;;;13.82;10.05;;;3.60;99.80;;;;;;5075201;28;20216;-78
2020/12/01 13:11:17;;;;;;;14.50;9.55;;;3.60;99.80;;;;;;5075710;28;20236;-78
2020/12/01 13:13:44;;;;;;;14.63;10.00;;;3.60;99.80;;;;;;5076821;28;20214;-78
2020/12/01 13:16:12;;;;;;;16.00;10.32;;;3.70;99.90;;;;;;5090035;28;20218;-77
2020/12/01 13:18:39;;;;;;;16.50;10.02;;;3.60;99.80;;;;;;5093736;28;20194;-77
2020/12/01 13:21:05;;;;;;;14.85;11.30;;;3.60;99.80;;;;;;5075817;28;20724;-77
2020/12/01 13:23:31;;;;;;;13.32;8.95;;;3.70;99.90;;;;;;5075665;28;20238;-78
2020/12/01 13:25:58;;;;;;;13.02;9.43;;;3.60;99.80;;;;;;5078566;28;20269;-77
2020/12/01 13:28:24;;;;;;;14.20;9.40;;;3.60;99.80;;;;;;5076413;28;20293;-78
2020/12/01 13:30:51;;;;;;;13.27;8.90;;;3.70;99.90;;;;;;5077256;28;20325;-77